Time,TemperatureF,DewpointF,PressureIn,WindDirection,WindDirectionDegrees,WindSpeedMPH,WindSpeedGustMPH,Humidity,HourlyPrecipIn,Conditions,Clouds,dailyrainin,SoftwareType,DateUTC
2013-03-07 00:01:00,48.8,46.3,29.70,SSW,192,0.0,5.0,91,0.00,,,0.00,VWS V13.01,2013-03-07 08:01:00,
2013-03-07 00:06:00,48.8,46.3,29.70,SSW,192,0.0,0.0,91,0.00,,,0.00,VWS V13.01,2013-03-07 08:06:00,
2013-03-07 00:12:00,48.8,46.3,29.70,SSW,192,0.0,0.0,91,0.00,,,0.00,VWS V13.01,2013-03-07 08:12:00,
2013-03-07 00:17:00,48.9,46.4,29.70,SSW,192,0.0,0.0,91,0.00,,,0.00,VWS V13.01,2013-03-07 08:17:00,
2013-03-07 00:22:00,49.0,46.5,29.70,SSW,192,0.0,0.0,91,0.00,,,0.00,VWS V13.01,2013-03-07 08:22:00,
2013-03-07 00:27:00,49.0,46.2,29.70,South,191,0.0,0.0,90,0.00,,,0.00,VWS V13.01,2013-03-07 08:27:00,
2013-03-07 00:32:00,49.0,46.2,29.70,SSW,192,0.0,0.0,90,0.00,,,0.00,VWS V13.01,2013-03-07 08:32:00,
2013-03-07 00:37:00,49.0,46.2,29.70,SSW,192,0.0,0.0,90,0.00,,,0.00,VWS V13.01,2013-03-07 08:37:00,
2013-03-07 00:42:00,49.0,46.5,29.70,South,191,0.0,0.0,91,0.00,,,0.00,VWS V13.01,2013-03-07 08:42:00,
2013-03-07 00:47:00,49.1,46.6,29.70,SSW,192,0.0,0.0,91,0.00,,,0.00,VWS V13.01,2013-03-07 08:47:00,
2013-03-07 00:52:00,49.0,46.2,29.70,South,191,0.0,0.0,90,0.00,,,0.00,VWS V13.01,2013-03-07 08:52:00,
2013-03-07 00:57:00,49.1,46.6,29.70,South,191,0.0,0.0,91,0.00,,,0.00,VWS V13.01,2013-03-07 08:57:00,
2013-03-07 01:02:00,49.2,46.7,29.70,SSW,192,0.0,0.0,91,0.00,,,0.00,VWS V13.01,2013-03-07 09:02:00,
2013-03-07 01:07:00,49.2,46.4,29.69,SSW,192,0.0,0.0,90,0.00,,,0.00,VWS V13.01,2013-03-07 09:07:00,
2013-03-07 01:12:00,49.1,46.3,29.69,SSW,192,0.0,0.0,90,0.00,,,0.00,VWS V13.01,2013-03-07 09:12:00,
2013-03-07 01:17:00,49.1,46.3,29.69,SSW,192,0.0,0.0,90,0.00,,,0.00,VWS V13.01,2013-03-07 09:17:00,
2013-03-07 01:23:00,49.0,46.2,29.69,SSW,192,0.0,2.0,90,0.00,,,0.00,VWS V13.01,2013-03-07 09:23:00,
2013-03-07 01:28:00,48.9,46.1,29.69,South,191,0.0,2.0,90,0.00,,,0.00,VWS V13.01,2013-03-07 09:28:00,
2013-03-07 01:33:00,48.8,46.0,29.69,SSW,192,0.0,2.0,90,0.00,,,0.00,VWS V13.01,2013-03-07 09:33:00,
2013-03-07 01:38:00,48.8,46.0,29.69,SSW,192,0.0,2.0,90,0.00,,,0.00,VWS V13.01,2013-03-07 09:38:00,
2013-03-07 01:43:00,48.7,45.9,29.69,SSW,192,1.0,2.0,90,0.00,,,0.00,VWS V13.01,2013-03-07 09:43:00,
2013-03-07 01:48:00,48.7,45.9,29.69,SSW,192,2.0,4.0,90,0.00,,,0.00,VWS V13.01,2013-03-07 09:48:00,
2013-03-07 01:53:00,48.6,45.8,29.68,NW,304,4.0,5.0,90,0.00,,,0.00,VWS V13.01,2013-03-07 09:53:00,
2013-03-07 01:58:00,48.5,45.4,29.68,WNW,303,4.0,5.0,89,0.00,,,0.00,VWS V13.01,2013-03-07 09:58:00,
2013-03-07 02:03:00,48.4,45.0,29.68,WNW,303,2.0,5.0,88,0.00,,,0.00,VWS V13.01,2013-03-07 10:03:00,
2013-03-07 02:08:00,48.3,44.9,29.68,NW,304,0.0,2.0,88,0.00,,,0.00,VWS V13.01,2013-03-07 10:08:00,
2013-03-07 02:13:00,48.2,44.8,29.68,WNW,303,0.0,2.0,88,0.00,,,0.00,VWS V13.01,2013-03-07 10:13:00,
2013-03-07 02:18:00,48.3,44.9,29.68,NW,304,3.0,3.0,88,0.00,,,0.00,VWS V13.01,2013-03-07 10:18:00,
2013-03-07 02:23:00,48.4,44.7,29.68,NW,311,0.0,5.0,87,0.00,,,0.00,VWS V13.01,2013-03-07 10:23:00,
2013-03-07 02:28:00,48.5,44.8,29.68,NW,311,6.0,6.0,87,0.00,,,0.00,VWS V13.01,2013-03-07 10:28:00,
2013-03-07 02:33:00,48.7,44.7,29.68,North,350,1.0,6.0,86,0.00,,,0.00,VWS V13.01,2013-03-07 10:33:00,
2013-03-07 02:38:00,48.8,44.8,29.67,North,350,0.0,6.0,86,0.00,,,0.00,VWS V13.01,2013-03-07 10:38:00,
2013-03-07 02:43:00,48.7,44.7,29.68,North,350,0.0,6.0,86,0.00,,,0.00,VWS V13.01,2013-03-07 10:43:00,
2013-03-07 02:48:00,48.6,44.6,29.68,North,350,0.0,6.0,86,0.00,,,0.00,VWS V13.01,2013-03-07 10:48:00,
2013-03-07 02:53:00,48.5,44.5,29.68,North,350,0.0,6.0,86,0.00,,,0.00,VWS V13.01,2013-03-07 10:53:00,
2013-03-07 02:58:00,48.4,44.7,29.68,North,350,0.0,6.0,87,0.00,,,0.00,VWS V13.01,2013-03-07 10:58:00,
2013-03-07 03:03:00,48.4,44.7,29.67,North,350,0.0,0.0,87,0.00,,,0.00,VWS V13.01,2013-03-07 11:03:00,
2013-03-07 03:09:00,48.4,44.7,29.67,North,350,0.0,2.0,87,0.00,,,0.00,VWS V13.01,2013-03-07 11:09:00,
2013-03-07 03:14:00,48.4,44.7,29.67,North,350,0.0,2.0,87,0.00,,,0.00,VWS V13.01,2013-03-07 11:14:00,
2013-03-07 03:19:00,48.5,44.8,29.67,North,350,0.0,2.0,87,0.00,,,0.00,VWS V13.01,2013-03-07 11:19:00,
2013-03-07 03:24:00,48.5,44.8,29.67,North,350,0.0,2.0,87,0.00,,,0.00,VWS V13.01,2013-03-07 11:24:00,
2013-03-07 03:29:00,48.5,44.8,29.67,North,350,0.0,2.0,87,0.00,,,0.00,VWS V13.01,2013-03-07 11:29:00,
2013-03-07 03:34:00,48.5,44.8,29.67,North,350,0.0,2.0,87,0.00,,,0.00,VWS V13.01,2013-03-07 11:34:00,
2013-03-07 03:39:00,48.5,44.8,29.67,North,350,0.0,2.0,87,0.00,,,0.00,VWS V13.01,2013-03-07 11:39:00,
2013-03-07 03:44:00,48.4,44.7,29.67,North,350,0.0,2.0,87,0.00,,,0.00,VWS V13.01,2013-03-07 11:44:00,
2013-03-07 03:49:00,48.3,44.6,29.66,North,350,0.0,2.0,87,0.00,,,0.00,VWS V13.01,2013-03-07 11:49:00,
2013-03-07 03:54:00,48.2,44.8,29.67,North,350,0.0,2.0,88,0.00,,,0.00,VWS V13.01,2013-03-07 11:54:00,
2013-03-07 03:59:00,48.1,44.7,29.67,North,350,0.0,2.0,88,0.00,,,0.00,VWS V13.01,2013-03-07 11:59:00,
2013-03-07 04:04:00,48.1,44.7,29.67,North,350,0.0,0.0,88,0.00,,,0.00,VWS V13.01,2013-03-07 12:04:00,
2013-03-07 04:09:00,48.1,44.7,29.67,North,350,0.0,0.0,88,0.00,,,0.00,VWS V13.01,2013-03-07 12:09:00,
2013-03-07 04:14:00,48.0,44.6,29.67,North,350,0.0,0.0,88,0.00,,,0.00,VWS V13.01,2013-03-07 12:14:00,
2013-03-07 04:19:00,48.0,44.6,29.67,North,350,0.0,0.0,88,0.00,,,0.00,VWS V13.01,2013-03-07 12:19:00,
2013-03-07 04:24:00,48.0,44.9,29.67,North,350,0.0,0.0,89,0.00,,,0.00,VWS V13.01,2013-03-07 12:24:00,
2013-03-07 04:29:00,48.1,45.0,29.67,North,350,0.0,0.0,89,0.00,,,0.00,VWS V13.01,2013-03-07 12:29:00,
2013-03-07 04:34:00,48.2,45.1,29.66,North,350,0.0,0.0,89,0.00,,,0.00,VWS V13.01,2013-03-07 12:34:00,
2013-03-07 04:39:00,48.2,45.1,29.66,North,350,0.0,0.0,89,0.00,,,0.00,VWS V13.01,2013-03-07 12:39:00,
2013-03-07 04:45:00,48.1,45.0,29.66,North,350,0.0,1.0,89,0.00,,,0.00,VWS V13.01,2013-03-07 12:45:00,
2013-03-07 04:50:00,47.9,44.8,29.66,North,350,0.0,1.0,89,0.00,,,0.00,VWS V13.01,2013-03-07 12:50:00,
2013-03-07 04:55:00,47.9,44.8,29.66,North,350,0.0,1.0,89,0.00,,,0.00,VWS V13.01,2013-03-07 12:55:00,
2013-03-07 05:00:00,47.8,44.7,29.66,North,350,0.0,1.0,89,0.00,,,0.00,VWS V13.01,2013-03-07 13:00:00,
2013-03-07 05:05:00,47.7,44.6,29.66,North,350,0.0,0.0,89,0.00,,,0.00,VWS V13.01,2013-03-07 13:05:00,
2013-03-07 05:10:00,47.5,44.1,29.66,North,350,0.0,0.0,88,0.00,,,0.00,VWS V13.01,2013-03-07 13:10:00,
2013-03-07 05:15:00,47.3,44.2,29.67,North,350,0.0,0.0,89,0.00,,,0.00,VWS V13.01,2013-03-07 13:15:00,
2013-03-07 05:20:00,47.0,43.6,29.67,North,350,1.0,2.0,88,0.00,,,0.00,VWS V13.01,2013-03-07 13:20:00,
2013-03-07 05:25:00,46.8,43.7,29.67,North,350,0.0,2.0,89,0.00,,,0.00,VWS V13.01,2013-03-07 13:25:00,
2013-03-07 05:30:00,46.5,43.1,29.67,North,350,0.0,2.0,88,0.00,,,0.00,VWS V13.01,2013-03-07 13:30:00,
2013-03-07 05:35:00,46.2,43.1,29.67,North,350,0.0,2.0,89,0.00,,,0.00,VWS V13.01,2013-03-07 13:35:00,
2013-03-07 05:40:00,46.0,43.2,29.67,North,350,0.0,2.0,90,0.00,,,0.00,VWS V13.01,2013-03-07 13:40:00,
2013-03-07 05:45:00,46.0,43.2,29.67,North,350,0.0,2.0,90,0.00,,,0.00,VWS V13.01,2013-03-07 13:45:00,
2013-03-07 05:50:00,46.0,43.2,29.67,North,351,0.0,2.0,90,0.00,,,0.00,VWS V13.01,2013-03-07 13:50:00,
2013-03-07 05:56:00,46.0,43.2,29.67,North,350,0.0,2.0,90,0.00,,,0.00,VWS V13.01,2013-03-07 13:56:00,
2013-03-07 06:01:00,45.9,43.1,29.67,North,350,0.0,2.0,90,0.00,,,0.00,VWS V13.01,2013-03-07 14:01:00,
2013-03-07 06:06:00,45.9,43.1,29.66,North,350,0.0,0.0,90,0.00,,,0.00,VWS V13.01,2013-03-07 14:06:00,
2013-03-07 06:11:00,45.8,43.0,29.66,North,350,0.0,0.0,90,0.00,,,0.00,VWS V13.01,2013-03-07 14:11:00,
2013-03-07 06:16:00,45.7,43.2,29.66,North,350,0.0,0.0,91,0.00,,,0.00,VWS V13.01,2013-03-07 14:16:00,
2013-03-07 06:21:00,45.6,42.8,29.66,North,350,0.0,0.0,90,0.00,,,0.00,VWS V13.01,2013-03-07 14:21:00,
2013-03-07 06:26:00,45.5,42.7,29.67,North,350,0.0,0.0,90,0.00,,,0.00,VWS V13.01,2013-03-07 14:26:00,
2013-03-07 06:31:00,45.5,43.0,29.67,North,350,0.0,0.0,91,0.00,,,0.00,VWS V13.01,2013-03-07 14:31:00,
2013-03-07 06:37:00,45.4,42.9,29.67,North,350,0.0,0.0,91,0.00,,,0.00,VWS V13.01,2013-03-07 14:37:00,
2013-03-07 06:42:00,45.4,42.9,29.67,North,350,0.0,0.0,91,0.00,,,0.00,VWS V13.01,2013-03-07 14:42:00,
2013-03-07 06:47:00,45.4,42.9,29.67,North,350,0.0,0.0,91,0.00,,,0.00,VWS V13.01,2013-03-07 14:47:00,
2013-03-07 06:52:00,45.4,42.9,29.67,North,350,1.0,2.0,91,0.00,,,0.00,VWS V13.01,2013-03-07 14:52:00,
2013-03-07 06:57:00,45.4,42.9,29.67,North,350,0.0,2.0,91,0.00,,,0.00,VWS V13.01,2013-03-07 14:57:00,
2013-03-07 07:02:00,45.4,42.9,29.67,South,170,1.0,2.0,91,0.00,,,0.00,VWS V13.01,2013-03-07 15:02:00,
2013-03-07 07:07:00,45.4,42.9,29.68,South,170,2.0,3.0,91,0.00,,,0.00,VWS V13.01,2013-03-07 15:07:00,
2013-03-07 07:12:00,45.5,43.0,29.68,SE,126,0.0,4.0,91,0.00,,,0.00,VWS V13.01,2013-03-07 15:12:00,
2013-03-07 07:17:00,45.7,43.2,29.68,SE,125,0.0,4.0,91,0.00,,,0.00,VWS V13.01,2013-03-07 15:17:00,
2013-03-07 07:22:00,45.8,43.3,29.68,SE,125,0.0,4.0,91,0.00,,,0.00,VWS V13.01,2013-03-07 15:22:00,
2013-03-07 07:27:00,46.1,43.9,29.68,SE,125,0.0,4.0,92,0.00,,,0.00,VWS V13.01,2013-03-07 15:27:00,
2013-03-07 07:32:00,46.3,44.1,29.68,SE,126,2.0,4.0,92,0.00,,,0.00,VWS V13.01,2013-03-07 15:32:00,
2013-03-07 07:37:00,46.5,44.0,29.68,SE,125,3.0,4.0,91,0.00,,,0.00,VWS V13.01,2013-03-07 15:37:00,
2013-03-07 07:42:00,46.7,43.9,29.68,SE,126,0.0,4.0,90,0.00,,,0.00,VWS V13.01,2013-03-07 15:42:00,
2013-03-07 07:48:00,47.0,44.2,29.69,SE,126,0.0,4.0,90,0.00,,,0.00,VWS V13.01,2013-03-07 15:48:00,
2013-03-07 07:53:00,47.5,44.4,29.69,SE,126,0.0,4.0,89,0.00,,,0.00,VWS V13.01,2013-03-07 15:53:00,
2013-03-07 07:58:00,47.9,44.5,29.69,SE,125,0.0,4.0,88,0.00,,,0.00,VWS V13.01,2013-03-07 15:58:00,
2013-03-07 08:03:00,48.4,44.7,29.69,SE,126,0.0,4.0,87,0.00,,,0.00,VWS V13.01,2013-03-07 16:03:00,
2013-03-07 08:08:00,48.8,44.8,29.69,SE,126,0.0,0.0,86,0.00,,,0.00,VWS V13.01,2013-03-07 16:08:00,
2013-03-07 08:13:00,49.4,45.4,29.69,SE,125,0.0,4.0,86,0.00,,,0.00,VWS V13.01,2013-03-07 16:13:00,
2013-03-07 08:18:00,49.8,45.5,29.69,SE,125,2.0,5.0,85,0.00,,,0.00,VWS V13.01,2013-03-07 16:18:00,
2013-03-07 08:23:00,49.9,45.6,29.69,SE,126,4.0,5.0,85,0.00,,,0.00,VWS V13.01,2013-03-07 16:23:00,
2013-03-07 08:28:00,50.1,45.8,29.69,SE,125,0.0,5.0,85,0.00,,,0.00,VWS V13.01,2013-03-07 16:28:00,
2013-03-07 08:33:00,50.3,46.0,29.69,SE,125,0.0,5.0,85,0.00,,,0.00,VWS V13.01,2013-03-07 16:33:00,
2013-03-07 08:38:00,50.5,45.8,29.69,SE,126,0.0,5.0,84,0.00,,,0.00,VWS V13.01,2013-03-07 16:38:00,
2013-03-07 08:43:00,50.9,46.2,29.69,SE,126,0.0,5.0,84,0.00,,,0.00,VWS V13.01,2013-03-07 16:43:00,
2013-03-07 08:48:00,51.3,45.7,29.68,SE,125,0.0,5.0,81,0.00,,,0.00,VWS V13.01,2013-03-07 16:48:00,
2013-03-07 08:53:00,51.6,45.6,29.69,SE,126,0.0,5.0,80,0.00,,,0.00,VWS V13.01,2013-03-07 16:53:00,
2013-03-07 08:59:00,51.8,45.5,29.68,SE,125,0.0,5.0,79,0.00,,,0.00,VWS V13.01,2013-03-07 16:59:00,
2013-03-07 09:04:00,52.1,45.8,29.68,SE,125,5.0,5.0,79,0.00,,,0.00,VWS V13.01,2013-03-07 17:04:00,
2013-03-07 09:09:00,52.2,45.6,29.68,SE,126,4.0,5.0,78,0.00,,,0.00,VWS V13.01,2013-03-07 17:09:00,
2013-03-07 09:14:00,52.5,45.5,29.68,SE,126,2.0,5.0,77,0.00,,,0.00,VWS V13.01,2013-03-07 17:14:00,
2013-03-07 09:19:00,52.9,45.2,29.68,SE,126,0.0,5.0,75,0.00,,,0.00,VWS V13.01,2013-03-07 17:19:00,
2013-03-07 09:24:00,53.2,44.8,29.68,SE,126,1.0,5.0,73,0.00,,,0.00,VWS V13.01,2013-03-07 17:24:00,
2013-03-07 09:29:00,53.2,44.8,29.68,SE,125,4.0,5.0,73,0.00,,,0.00,VWS V13.01,2013-03-07 17:29:00,
2013-03-07 09:34:00,53.2,44.8,29.67,SE,126,4.0,6.0,73,0.00,,,0.00,VWS V13.01,2013-03-07 17:34:00,
2013-03-07 09:39:00,53.2,45.1,29.68,SE,128,4.0,6.0,74,0.00,,,0.00,VWS V13.01,2013-03-07 17:39:00,
2013-03-07 09:44:00,53.1,43.6,29.67,SE,138,2.0,7.0,70,0.00,,,0.00,VWS V13.01,2013-03-07 17:44:00,
2013-03-07 09:49:00,53.4,45.3,29.67,SE,138,5.0,7.0,74,0.00,,,0.00,VWS V13.01,2013-03-07 17:49:00,
2013-03-07 09:54:00,54.1,46.0,29.67,SSE,149,5.0,7.0,74,0.00,,,0.00,VWS V13.01,2013-03-07 17:54:00,
2013-03-07 09:59:00,54.2,45.0,29.67,SSE,150,1.0,7.0,71,0.00,,,0.00,VWS V13.01,2013-03-07 17:59:00,
2013-03-07 10:04:00,54.6,46.1,29.67,SE,126,10.0,10.0,73,0.00,,,0.00,VWS V13.01,2013-03-07 18:04:00,
2013-03-07 10:09:00,54.8,46.3,29.67,SE,142,7.0,10.0,73,0.00,,,0.00,VWS V13.01,2013-03-07 18:09:00,
2013-03-07 10:14:00,55.2,45.6,29.67,SE,137,9.0,10.0,70,0.00,,,0.00,VWS V13.01,2013-03-07 18:14:00,
2013-03-07 10:19:00,55.3,44.2,29.67,SSE,149,4.0,10.0,66,0.00,,,0.00,VWS V13.01,2013-03-07 18:19:00,
2013-03-07 10:24:00,55.8,44.2,29.67,SSE,154,6.0,10.0,65,0.00,,,0.00,VWS V13.01,2013-03-07 18:24:00,
2013-03-07 10:29:00,55.8,43.8,29.67,SE,137,4.0,10.0,64,0.00,,,0.00,VWS V13.01,2013-03-07 18:29:00,
2013-03-07 10:34:00,55.6,42.8,29.68,SE,144,4.0,10.0,62,0.00,,,0.00,VWS V13.01,2013-03-07 18:34:00,
2013-03-07 10:39:00,55.8,44.2,29.68,SE,144,1.0,10.0,65,0.00,,,0.00,VWS V13.01,2013-03-07 18:39:00,
2013-03-07 10:45:00,55.9,43.1,29.68,SE,144,3.0,10.0,62,0.00,,,0.00,VWS V13.01,2013-03-07 18:45:00,
2013-03-07 10:50:00,55.8,43.0,29.68,SSE,154,2.0,10.0,62,0.00,,,0.00,VWS V13.01,2013-03-07 18:50:00,
2013-03-07 10:55:00,55.6,42.4,29.68,SSE,153,5.0,10.0,61,0.00,,,0.00,VWS V13.01,2013-03-07 18:55:00,
2013-03-07 11:00:00,55.8,42.1,29.68,SE,141,7.0,10.0,60,0.00,,,0.00,VWS V13.01,2013-03-07 19:00:00,
2013-03-07 11:05:00,55.9,42.2,29.67,ESE,114,5.0,8.0,60,0.00,,,0.00,VWS V13.01,2013-03-07 19:05:00,
2013-03-07 11:10:00,55.9,42.7,29.67,ESE,122,5.0,9.0,61,0.00,,,0.00,VWS V13.01,2013-03-07 19:10:00,
2013-03-07 11:15:00,55.9,42.7,29.67,SE,132,6.0,9.0,61,0.00,,,0.00,VWS V13.01,2013-03-07 19:15:00,
2013-03-07 11:20:00,56.0,43.2,29.67,SE,145,3.0,9.0,62,0.00,,,0.00,VWS V13.01,2013-03-07 19:20:00,
2013-03-07 11:25:00,56.2,43.8,29.66,SSE,157,3.0,9.0,63,0.00,,,0.00,VWS V13.01,2013-03-07 19:25:00,
2013-03-07 11:30:00,56.3,43.9,29.67,SE,146,4.0,10.0,63,0.00,,,0.00,VWS V13.01,2013-03-07 19:30:00,
2013-03-07 11:35:00,56.0,44.8,29.66,SSE,154,7.0,13.0,66,0.00,,,0.00,VWS V13.01,2013-03-07 19:35:00,
2013-03-07 11:40:00,55.8,44.6,29.67,SE,144,8.0,15.0,66,0.00,,,0.00,VWS V13.01,2013-03-07 19:40:00,
2013-03-07 11:45:00,55.7,44.5,29.67,SSE,149,5.0,15.0,66,0.00,,,0.00,VWS V13.01,2013-03-07 19:45:00,
2013-03-07 11:51:00,55.4,45.4,29.66,WSW,240,7.0,15.0,69,0.00,,,0.00,VWS V13.01,2013-03-07 19:51:00,
2013-03-07 11:56:00,55.1,45.5,29.66,SSE,155,10.0,15.0,70,0.00,,,0.00,VWS V13.01,2013-03-07 19:56:00,
2013-03-07 12:01:00,55.2,46.0,29.66,SSE,165,6.0,15.0,71,0.00,,,0.00,VWS V13.01,2013-03-07 20:01:00,
2013-03-07 12:06:00,55.3,44.9,29.66,SSE,167,5.0,16.0,68,0.00,,,0.00,VWS V13.01,2013-03-07 20:06:00,
2013-03-07 12:11:00,55.3,45.3,29.66,SW,230,8.0,22.0,69,0.00,,,0.00,VWS V13.01,2013-03-07 20:11:00,
2013-03-07 12:16:00,55.3,44.9,29.66,South,171,6.0,22.0,68,0.00,,,0.00,VWS V13.01,2013-03-07 20:16:00,
2013-03-07 12:21:00,55.1,44.7,29.66,South,180,7.0,22.0,68,0.00,,,0.00,VWS V13.01,2013-03-07 20:21:00,
2013-03-07 12:26:00,54.9,44.2,29.66,SSE,157,3.0,22.0,67,0.00,,,0.00,VWS V13.01,2013-03-07 20:26:00,
2013-03-07 12:31:00,54.7,44.0,29.66,ESE,115,0.0,22.0,67,0.00,,,0.00,VWS V13.01,2013-03-07 20:31:00,
2013-03-07 12:36:00,55.3,43.3,29.66,SSE,152,8.0,22.0,64,0.00,,,0.00,VWS V13.01,2013-03-07 20:36:00,
2013-03-07 12:41:00,55.2,42.0,29.65,SSE,152,5.0,22.0,61,0.00,,,0.00,VWS V13.01,2013-03-07 20:41:00,
2013-03-07 12:46:00,55.5,42.7,29.65,ESE,121,2.0,22.0,62,0.00,,,0.00,VWS V13.01,2013-03-07 20:46:00,
2013-03-07 12:51:00,56.2,43.0,29.65,SSE,153,7.0,22.0,61,0.00,,,0.00,VWS V13.01,2013-03-07 20:51:00,
2013-03-07 12:56:00,56.5,42.8,29.64,SE,128,4.0,22.0,60,0.00,,,0.00,VWS V13.01,2013-03-07 20:56:00,
2013-03-07 13:01:00,56.9,42.3,29.64,SE,130,1.0,22.0,58,0.00,,,0.00,VWS V13.01,2013-03-07 21:01:00,
2013-03-07 13:06:00,57.0,43.3,29.64,ESE,113,11.0,13.0,60,0.00,,,0.00,VWS V13.01,2013-03-07 21:06:00,
2013-03-07 13:11:00,56.8,43.5,29.63,ESE,111,5.0,13.0,61,0.00,,,0.00,VWS V13.01,2013-03-07 21:11:00,
2013-03-07 13:16:00,56.6,42.5,29.63,SW,225,8.0,13.0,59,0.00,,,0.00,VWS V13.01,2013-03-07 21:16:00,
2013-03-07 13:21:00,56.3,42.2,29.63,South,176,5.0,13.0,59,0.00,,,0.00,VWS V13.01,2013-03-07 21:21:00,
2013-03-07 13:26:00,56.9,42.3,29.63,SE,146,11.0,13.0,58,0.00,,,0.00,VWS V13.01,2013-03-07 21:26:00,
2013-03-07 13:31:00,57.0,42.8,29.63,SW,230,14.0,16.0,59,0.00,,,0.00,VWS V13.01,2013-03-07 21:31:00,
2013-03-07 13:36:00,56.2,42.5,29.63,SE,132,5.0,18.0,60,0.00,,,0.00,VWS V13.01,2013-03-07 21:36:00,
2013-03-07 13:41:00,55.8,42.6,29.63,SW,225,6.0,18.0,61,0.00,,,0.00,VWS V13.01,2013-03-07 21:41:00,
2013-03-07 13:46:00,55.7,42.5,29.62,SSW,206,5.0,18.0,61,0.00,,,0.00,VWS V13.01,2013-03-07 21:46:00,
2013-03-07 13:51:00,55.8,42.1,29.62,SE,131,6.0,18.0,60,0.00,,,0.00,VWS V13.01,2013-03-07 21:51:00,
2013-03-07 13:56:00,56.1,42.4,29.62,SW,232,8.0,18.0,60,0.00,,,0.00,VWS V13.01,2013-03-07 21:56:00,
2013-03-07 14:01:00,55.8,42.1,29.62,West,263,0.0,18.0,60,0.00,,,0.00,VWS V13.01,2013-03-07 22:01:00,
2013-03-07 14:07:00,56.3,42.6,29.62,SSE,161,6.0,9.0,60,0.00,,,0.00,VWS V13.01,2013-03-07 22:07:00,
2013-03-07 14:12:00,56.7,41.7,29.62,SSW,205,5.0,9.0,57,0.00,,,0.00,VWS V13.01,2013-03-07 22:12:00,
2013-03-07 14:17:00,56.8,41.8,29.61,SSE,160,7.0,10.0,57,0.00,,,0.00,VWS V13.01,2013-03-07 22:17:00,
2013-03-07 14:22:00,57.1,42.9,29.61,SE,135,7.0,10.0,59,0.00,,,0.00,VWS V13.01,2013-03-07 22:22:00,
2013-03-07 14:27:00,57.1,41.6,29.62,SSE,149,6.0,10.0,56,0.00,,,0.00,VWS V13.01,2013-03-07 22:27:00,
2013-03-07 14:32:00,57.1,41.6,29.62,SSE,163,1.0,12.0,56,0.00,,,0.00,VWS V13.01,2013-03-07 22:32:00,
2013-03-07 14:37:00,57.1,42.0,29.62,West,271,4.0,12.0,57,0.00,,,0.00,VWS V13.01,2013-03-07 22:37:00,
2013-03-07 14:42:00,56.9,41.4,29.62,SE,126,11.0,13.0,56,0.00,,,0.00,VWS V13.01,2013-03-07 22:42:00,
2013-03-07 14:47:00,57.2,41.2,29.62,SE,130,1.0,13.0,55,0.00,,,0.00,VWS V13.01,2013-03-07 22:47:00,
2013-03-07 14:52:00,57.3,41.8,29.62,ESE,120,9.0,13.0,56,0.00,,,0.00,VWS V13.01,2013-03-07 22:52:00,
2013-03-07 14:57:00,57.3,41.8,29.62,SE,125,7.0,13.0,56,0.00,,,0.00,VWS V13.01,2013-03-07 22:57:00,
2013-03-07 15:02:00,57.2,41.2,29.62,South,184,9.0,13.0,55,0.00,,,0.00,VWS V13.01,2013-03-07 23:02:00,
2013-03-07 15:07:00,57.7,41.2,29.62,SSE,153,4.0,11.0,54,0.00,,,0.00,VWS V13.01,2013-03-07 23:07:00,
2013-03-07 15:12:00,57.4,40.9,29.61,SSE,156,7.0,11.0,54,0.00,,,0.00,VWS V13.01,2013-03-07 23:12:00,
2013-03-07 15:17:00,57.0,41.0,29.61,SSE,157,7.0,11.0,55,0.00,,,0.00,VWS V13.01,2013-03-07 23:17:00,
2013-03-07 15:22:00,56.7,40.3,29.61,SE,134,6.0,14.0,54,0.00,,,0.00,VWS V13.01,2013-03-07 23:22:00,
2013-03-07 15:27:00,57.1,41.1,29.61,SSE,148,7.0,14.0,55,0.00,,,0.00,VWS V13.01,2013-03-07 23:27:00,
2013-03-07 15:32:00,56.9,40.0,29.61,SE,129,2.0,14.0,53,0.00,,,0.00,VWS V13.01,2013-03-07 23:32:00,
2013-03-07 15:37:00,56.8,40.3,29.61,SW,221,4.0,14.0,54,0.00,,,0.00,VWS V13.01,2013-03-07 23:37:00,
2013-03-07 15:42:00,56.8,40.3,29.61,SE,146,5.0,14.0,54,0.00,,,0.00,VWS V13.01,2013-03-07 23:42:00,
2013-03-07 15:47:00,56.3,39.9,29.61,SSE,153,4.0,14.0,54,0.00,,,0.00,VWS V13.01,2013-03-07 23:47:00,
2013-03-07 15:53:00,56.0,40.1,29.61,ESE,123,7.0,14.0,55,0.00,,,0.00,VWS V13.01,2013-03-07 23:53:00,
2013-03-07 15:58:00,55.7,39.8,29.61,SSE,155,5.0,14.0,55,0.00,,,0.00,VWS V13.01,2013-03-07 23:58:00,
2013-03-07 16:03:00,55.3,39.4,29.61,SSE,147,8.0,14.0,55,0.00,,,0.00,VWS V13.01,2013-03-08 00:03:00,
2013-03-07 16:08:00,55.3,40.3,29.61,SE,140,2.0,9.0,57,0.00,,,0.00,VWS V13.01,2013-03-08 00:08:00,
2013-03-07 16:13:00,55.2,39.3,29.61,SSE,152,8.0,11.0,55,0.00,,,0.00,VWS V13.01,2013-03-08 00:13:00,
2013-03-07 16:18:00,55.2,39.8,29.61,SE,146,1.0,11.0,56,0.00,,,0.00,VWS V13.01,2013-03-08 00:18:00,
2013-03-07 16:23:00,55.5,40.5,29.61,SE,128,5.0,11.0,57,0.00,,,0.00,VWS V13.01,2013-03-08 00:23:00,
2013-03-07 16:28:00,55.2,40.2,29.61,SE,127,9.0,11.0,57,0.00,,,0.00,VWS V13.01,2013-03-08 00:28:00,
2013-03-07 16:33:00,54.6,40.1,29.61,SE,126,7.0,11.0,58,0.00,,,0.00,VWS V13.01,2013-03-08 00:33:00,
2013-03-07 16:38:00,54.2,39.3,29.61,SSE,152,4.0,11.0,57,0.00,,,0.00,VWS V13.01,2013-03-08 00:38:00,
2013-03-07 16:43:00,54.0,39.6,29.61,SSE,156,1.0,11.0,58,0.00,,,0.00,VWS V13.01,2013-03-08 00:43:00,
2013-03-07 16:48:00,53.9,39.9,29.61,SSE,148,9.0,11.0,59,0.00,,,0.00,VWS V13.01,2013-03-08 00:48:00,
2013-03-07 16:53:00,53.7,40.6,29.61,SE,144,5.0,11.0,61,0.00,,,0.00,VWS V13.01,2013-03-08 00:53:00,
2013-03-07 16:58:00,53.7,40.6,29.61,East,101,5.0,11.0,61,0.00,,,0.00,VWS V13.01,2013-03-08 00:58:00,
2013-03-07 17:03:00,53.4,41.1,29.61,SE,134,6.0,11.0,63,0.00,,,0.00,VWS V13.01,2013-03-08 01:03:00,
2013-03-07 17:08:00,53.2,41.3,29.61,SSE,148,1.0,9.0,64,0.00,,,0.00,VWS V13.01,2013-03-08 01:08:00,
2013-03-07 17:13:00,53.0,41.2,29.61,SE,143,5.0,9.0,64,0.00,,,0.00,VWS V13.01,2013-03-08 01:13:00,
2013-03-07 17:18:00,52.8,41.0,29.61,SE,144,6.0,9.0,64,0.00,,,0.00,VWS V13.01,2013-03-08 01:18:00,
2013-03-07 17:23:00,52.7,41.3,29.61,SE,144,3.0,9.0,65,0.00,,,0.00,VWS V13.01,2013-03-08 01:23:00,
2013-03-07 17:28:00,52.7,41.7,29.61,SE,144,0.0,9.0,66,0.00,,,0.00,VWS V13.01,2013-03-08 01:28:00,
2013-03-07 17:33:00,52.7,41.7,29.61,SE,144,0.0,9.0,66,0.00,,,0.00,VWS V13.01,2013-03-08 01:33:00,
2013-03-07 17:38:00,52.6,41.6,29.60,SE,144,4.0,9.0,66,0.00,,,0.00,VWS V13.01,2013-03-08 01:38:00,
2013-03-07 17:43:00,52.4,41.8,29.60,SE,144,1.0,9.0,67,0.00,,,0.00,VWS V13.01,2013-03-08 01:43:00,
2013-03-07 17:48:00,52.3,41.3,29.61,SE,144,0.0,9.0,66,0.00,,,0.00,VWS V13.01,2013-03-08 01:48:00,
2013-03-07 17:53:00,52.1,41.5,29.61,SE,144,0.0,9.0,67,0.00,,,0.00,VWS V13.01,2013-03-08 01:53:00,
2013-03-07 17:58:00,52.1,41.9,29.61,SE,144,1.0,9.0,68,0.00,,,0.00,VWS V13.01,2013-03-08 01:58:00,
2013-03-07 18:03:00,52.0,41.4,29.61,SE,144,0.0,0.0,67,0.00,,,0.00,VWS V13.01,2013-03-08 02:03:00,
2013-03-07 18:08:00,51.9,41.7,29.60,SE,144,0.0,0.0,68,0.00,,,0.00,VWS V13.01,2013-03-08 02:08:00,
2013-03-07 18:13:00,51.8,41.6,29.60,SE,144,0.0,0.0,68,0.00,,,0.00,VWS V13.01,2013-03-08 02:13:00,
2013-03-07 18:18:00,51.8,42.0,29.60,SE,144,0.0,2.0,69,0.00,,,0.00,VWS V13.01,2013-03-08 02:18:00,
2013-03-07 18:23:00,51.7,42.2,29.60,SE,144,0.0,5.0,70,0.00,,,0.00,VWS V13.01,2013-03-08 02:23:00,
2013-03-07 18:28:00,51.6,42.2,29.60,SE,144,0.0,5.0,70,0.00,,,0.00,VWS V13.01,2013-03-08 02:28:00,
2013-03-07 18:33:00,51.5,42.4,29.60,SE,144,0.0,5.0,71,0.00,,,0.00,VWS V13.01,2013-03-08 02:33:00,
2013-03-07 18:38:00,51.5,42.8,29.60,SE,144,0.0,5.0,72,0.00,,,0.00,VWS V13.01,2013-03-08 02:38:00,
2013-03-07 18:43:00,51.4,43.0,29.60,SE,144,0.0,5.0,73,0.00,,,0.00,VWS V13.01,2013-03-08 02:43:00,
2013-03-07 18:48:00,51.1,43.5,29.60,SE,144,0.0,5.0,75,0.00,,,0.00,VWS V13.01,2013-03-08 02:48:00,
2013-03-07 18:53:00,50.9,44.0,29.60,SE,144,0.0,5.0,77,0.00,,,0.00,VWS V13.01,2013-03-08 02:53:00,
2013-03-07 18:58:00,50.8,44.2,29.60,SE,144,0.0,5.0,78,0.00,,,0.00,VWS V13.01,2013-03-08 02:58:00,
2013-03-07 19:03:00,50.6,44.3,29.60,SE,144,1.0,4.0,79,0.00,,,0.00,VWS V13.01,2013-03-08 03:03:00,
2013-03-07 19:08:00,50.4,44.1,29.60,SE,144,2.0,4.0,79,0.00,,,0.00,VWS V13.01,2013-03-08 03:08:00,
2013-03-07 19:13:00,50.2,44.3,29.60,SE,144,2.0,5.0,80,0.00,,,0.00,VWS V13.01,2013-03-08 03:13:00,
2013-03-07 19:19:00,50.0,44.7,29.60,SE,144,4.0,5.0,82,0.01,,,0.01,VWS V13.01,2013-03-08 03:19:00,
2013-03-07 19:24:00,49.7,45.1,29.60,SE,144,2.0,5.0,84,0.01,,,0.01,VWS V13.01,2013-03-08 03:24:00,
2013-03-07 19:29:00,49.5,44.9,29.60,SE,144,2.0,5.0,84,0.01,,,0.01,VWS V13.01,2013-03-08 03:29:00,
2013-03-07 19:34:00,49.3,45.0,29.60,SE,144,2.0,6.0,85,0.01,,,0.01,VWS V13.01,2013-03-08 03:34:00,
2013-03-07 19:39:00,49.1,44.8,29.60,SE,144,2.0,6.0,85,0.01,,,0.01,VWS V13.01,2013-03-08 03:39:00,
2013-03-07 19:44:00,49.0,45.0,29.60,SE,144,4.0,6.0,86,0.02,,,0.02,VWS V13.01,2013-03-08 03:44:00,
2013-03-07 19:49:00,48.8,44.5,29.60,SE,144,5.0,6.0,85,0.02,,,0.02,VWS V13.01,2013-03-08 03:49:00,
2013-03-07 19:54:00,48.5,43.6,29.60,SE,144,2.0,6.0,83,0.03,,,0.03,VWS V13.01,2013-03-08 03:54:00,
2013-03-07 19:59:00,48.4,44.4,29.60,SE,145,5.0,6.0,86,0.03,,,0.03,VWS V13.01,2013-03-08 03:59:00,
2013-03-07 20:04:00,48.2,44.5,29.60,NW,313,3.0,5.0,87,0.03,,,0.03,VWS V13.01,2013-03-08 04:04:00,
2013-03-07 20:09:00,47.8,43.8,29.59,NW,313,1.0,6.0,86,0.03,,,0.03,VWS V13.01,2013-03-08 04:09:00,
2013-03-07 20:14:00,47.6,43.6,29.60,NW,313,0.0,6.0,86,0.04,,,0.04,VWS V13.01,2013-03-08 04:14:00,
2013-03-07 20:19:00,47.4,43.7,29.60,NW,313,0.0,6.0,87,0.04,,,0.04,VWS V13.01,2013-03-08 04:19:00,
2013-03-07 20:24:00,47.2,43.5,29.59,NW,313,4.0,6.0,87,0.04,,,0.04,VWS V13.01,2013-03-08 04:24:00,
2013-03-07 20:29:00,46.8,42.8,29.59,NW,313,5.0,6.0,86,0.05,,,0.05,VWS V13.01,2013-03-08 04:29:00,
2013-03-07 20:34:00,46.5,42.8,29.59,NW,313,0.0,6.0,87,0.05,,,0.05,VWS V13.01,2013-03-08 04:34:00,
2013-03-07 20:39:00,46.6,43.2,29.59,NW,313,0.0,6.0,88,0.06,,,0.06,VWS V13.01,2013-03-08 04:39:00,
2013-03-07 20:44:00,46.7,43.6,29.59,NW,313,3.0,6.0,89,0.06,,,0.06,VWS V13.01,2013-03-08 04:44:00,
2013-03-07 20:49:00,46.6,43.5,29.59,NW,313,0.0,6.0,89,0.06,,,0.06,VWS V13.01,2013-03-08 04:49:00,
2013-03-07 20:54:00,46.5,43.4,29.59,NW,313,0.0,6.0,89,0.06,,,0.06,VWS V13.01,2013-03-08 04:54:00,
2013-03-07 20:59:00,46.4,43.6,29.59,NW,313,0.0,6.0,90,0.06,,,0.06,VWS V13.01,2013-03-08 04:59:00,
2013-03-07 21:00:00,46.4,43.6,29.59,NW,313,0.0,6.0,90,0.06,,,0.06,VWS V13.01,2013-03-08 05:00:00,
2013-03-07 21:02:00,46.4,43.6,29.59,NW,313,2.0,6.0,90,0.06,,,0.06,VWS V13.01,2013-03-08 05:02:00,
2013-03-07 21:07:00,46.3,43.5,29.59,NW,313,2.0,3.0,90,0.04,,,0.07,VWS V13.01,2013-03-08 05:07:00,
2013-03-07 21:12:00,46.2,43.4,29.59,NW,313,0.0,4.0,90,0.04,,,0.07,VWS V13.01,2013-03-08 05:12:00,
2013-03-07 21:17:00,46.3,43.5,29.59,NW,313,0.0,4.0,90,0.04,,,0.07,VWS V13.01,2013-03-08 05:17:00,
2013-03-07 21:22:00,46.3,43.5,29.58,NW,313,4.0,5.0,90,0.05,,,0.08,VWS V13.01,2013-03-08 05:22:00,
2013-03-07 21:27:00,46.2,43.4,29.58,NW,315,6.0,7.0,90,0.05,,,0.08,VWS V13.01,2013-03-08 05:27:00,
2013-03-07 21:32:00,46.3,43.0,29.58,NW,315,3.0,7.0,88,0.05,,,0.09,VWS V13.01,2013-03-08 05:32:00,
2013-03-07 21:37:00,46.3,43.0,29.58,NW,315,0.0,7.0,88,0.06,,,0.09,VWS V13.01,2013-03-08 05:37:00,
2013-03-07 21:42:00,46.5,43.4,29.58,NW,315,0.0,7.0,89,0.06,,,0.09,VWS V13.01,2013-03-08 05:42:00,
2013-03-07 21:47:00,46.5,43.4,29.57,NW,315,1.0,7.0,89,0.06,,,0.09,VWS V13.01,2013-03-08 05:47:00,
2013-03-07 21:52:00,46.4,43.3,29.57,NW,315,1.0,7.0,89,0.06,,,0.09,VWS V13.01,2013-03-08 05:52:00,
2013-03-07 21:57:00,46.3,43.5,29.57,NW,315,4.0,7.0,90,0.06,,,0.09,VWS V13.01,2013-03-08 05:57:00,
2013-03-07 22:02:00,46.2,43.4,29.57,NW,315,0.0,7.0,90,0.06,,,0.09,VWS V13.01,2013-03-08 06:02:00,
2013-03-07 22:07:00,46.2,43.4,29.57,NW,315,1.0,2.0,90,0.03,,,0.10,VWS V13.01,2013-03-08 06:07:00,
2013-03-07 22:12:00,46.1,43.6,29.57,SW,223,0.0,5.0,91,0.04,,,0.11,VWS V13.01,2013-03-08 06:12:00,
2013-03-07 22:17:00,46.1,43.6,29.56,SW,223,0.0,5.0,91,0.06,,,0.13,VWS V13.01,2013-03-08 06:17:00,
2013-03-07 22:22:00,46.0,43.5,29.56,SW,223,2.0,5.0,91,0.06,,,0.13,VWS V13.01,2013-03-08 06:22:00,
2013-03-07 22:27:00,45.9,43.4,29.56,West,279,6.0,8.0,91,0.06,,,0.13,VWS V13.01,2013-03-08 06:27:00,
2013-03-07 22:32:00,45.9,43.4,29.55,NW,306,5.0,8.0,91,0.07,,,0.14,VWS V13.01,2013-03-08 06:32:00,
2013-03-07 22:37:00,45.9,43.4,29.55,NW,309,4.0,8.0,91,0.08,,,0.15,VWS V13.01,2013-03-08 06:37:00,
2013-03-07 22:42:00,46.0,43.2,29.55,NW,309,4.0,8.0,90,0.09,,,0.16,VWS V13.01,2013-03-08 06:42:00,
2013-03-07 22:47:00,46.1,43.3,29.55,NW,309,2.0,8.0,90,0.09,,,0.16,VWS V13.01,2013-03-08 06:47:00,
2013-03-07 22:52:00,46.1,43.3,29.54,NW,309,4.0,8.0,90,0.10,,,0.17,VWS V13.01,2013-03-08 06:52:00,
2013-03-07 22:57:00,46.2,43.4,29.55,NW,309,0.0,8.0,90,0.10,,,0.18,VWS V13.01,2013-03-08 06:57:00,
2013-03-07 23:02:00,46.1,43.3,29.54,NW,309,6.0,8.0,90,0.12,,,0.19,VWS V13.01,2013-03-08 07:02:00,
2013-03-07 23:07:00,46.3,43.0,29.53,WNW,298,2.0,10.0,88,0.12,,,0.21,VWS V13.01,2013-03-08 07:07:00,
2013-03-07 23:12:00,46.4,43.3,29.53,West,280,2.0,10.0,89,0.13,,,0.22,VWS V13.01,2013-03-08 07:12:00,
2013-03-07 23:17:00,46.5,43.7,29.54,SE,140,2.0,10.0,90,0.14,,,0.23,VWS V13.01,2013-03-08 07:17:00,
2013-03-07 23:22:00,46.5,44.0,29.53,SE,140,2.0,10.0,91,0.16,,,0.25,VWS V13.01,2013-03-08 07:22:00,
2013-03-07 23:27:00,46.3,44.1,29.53,ESE,120,4.0,10.0,92,0.18,,,0.27,VWS V13.01,2013-03-08 07:27:00,
2013-03-07 23:32:00,46.3,44.1,29.53,ESE,120,0.0,10.0,92,0.19,,,0.28,VWS V13.01,2013-03-08 07:32:00,
2013-03-07 23:37:00,46.1,43.9,29.52,NNW,339,5.0,10.0,92,0.21,,,0.30,VWS V13.01,2013-03-08 07:37:00,
2013-03-07 23:43:00,45.9,43.7,29.52,NNW,339,4.0,10.0,92,0.22,,,0.31,VWS V13.01,2013-03-08 07:43:00,
2013-03-07 23:48:00,45.9,43.7,29.52,NNW,338,0.0,10.0,92,0.23,,,0.32,VWS V13.01,2013-03-08 07:48:00,
2013-03-07 23:53:00,45.9,43.7,29.51,NNW,339,0.0,10.0,92,0.25,,,0.34,VWS V13.01,2013-03-08 07:53:00,
2013-03-07 23:58:00,45.8,43.6,29.51,NNW,339,0.0,10.0,92,0.26,,,0.35,VWS V13.01,2013-03-08 07:58:00,